Time;durP1;ratioP1;P1;durP2;ratioP2;P2;SDS_P1;SDS_P2;PMS_P1;PMS_P2;Temp;Humidity;BMP_temperature;BMP_pressure;BME280_temperature;BME280_humidity;BME280_pressure;Samples;Min_cycle;Max_cycle;Signal;HPM_P1;HPM_P2
2022/07/04 00:01:25;;;;;;;9.80;4.75;;;14.10;99.90;;;;;;5036798;28;20045;-61
2022/07/04 00:03:50;;;;;;;11.80;4.72;;;14.00;99.90;;;;;;5037276;28;20599;-60
2022/07/04 00:06:16;;;;;;;9.07;4.63;;;14.00;99.90;;;;;;5036754;28;20502;-60
2022/07/04 00:08:42;;;;;;;8.95;4.65;;;14.00;99.90;;;;;;5038057;28;20104;-61
2022/07/04 00:11:08;;;;;;;9.57;4.40;;;13.90;99.90;;;;;;5037713;28;20041;-61
2022/07/04 00:13:33;;;;;;;9.00;4.43;;;14.00;99.90;;;;;;5035537;28;20041;-60
2022/07/04 00:15:59;;;;;;;9.95;4.70;;;13.90;99.90;;;;;;5038018;28;20053;-60
2022/07/04 00:18:25;;;;;;;9.48;4.03;;;13.90;99.90;;;;;;5036539;28;20447;-60
2022/07/04 00:20:50;;;;;;;8.57;4.50;;;13.90;99.90;;;;;;5037326;28;20065;-60
2022/07/04 00:23:16;;;;;;;9.85;4.80;;;14.00;99.90;;;;;;5020503;28;20050;-59
2022/07/04 00:25:42;;;;;;;6.50;4.35;;;13.90;99.90;;;;;;5022082;28;20038;-60
2022/07/04 00:28:07;;;;;;;8.82;4.53;;;13.90;99.90;;;;;;5021330;28;20072;-60
2022/07/04 00:30:33;;;;;;;9.52;4.85;;;13.90;99.90;;;;;;5020825;28;20616;-60
2022/07/04 00:32:59;;;;;;;8.38;3.97;;;13.90;99.90;;;;;;5022159;28;20068;-60
2022/07/04 00:35:24;;;;;;;8.80;4.53;;;13.90;99.90;;;;;;5019848;28;20042;-60
2022/07/04 00:37:50;;;;;;;13.02;4.88;;;13.80;99.90;;;;;;5021883;28;20080;-60
2022/07/04 00:40:16;;;;;;;8.98;4.43;;;13.80;99.90;;;;;;5019855;28;20038;-60
2022/07/04 00:42:41;;;;;;;8.90;4.93;;;13.80;99.90;;;;;;5021637;28;20060;-60
2022/07/04 00:45:08;;;;;;;7.53;3.67;;;13.80;99.90;;;;;;5020585;28;20101;-59
2022/07/04 00:47:33;;;;;;;8.07;4.20;;;13.80;99.90;;;;;;5019594;28;20124;-60
2022/07/04 00:49:59;;;;;;;10.05;5.25;;;13.70;99.90;;;;;;5021587;28;20077;-60
2022/07/04 00:52:25;;;;;;;9.00;4.90;;;13.80;99.90;;;;;;5034556;28;20065;-60
2022/07/04 00:54:50;;;;;;;8.00;5.38;;;13.70;99.90;;;;;;5041669;28;20064;-60
2022/07/04 00:57:16;;;;;;;8.45;4.55;;;13.70;99.90;;;;;;5039581;28;20037;-61
2022/07/04 00:59:42;;;;;;;10.57;4.95;;;13.70;99.90;;;;;;5041555;28;20049;-60
2022/07/04 01:02:08;;;;;;;11.30;5.50;;;13.70;99.90;;;;;;5039631;28;20045;-59
2022/07/04 01:04:34;;;;;;;9.65;4.90;;;13.60;99.90;;;;;;5040541;28;20057;-60
2022/07/04 01:07:00;;;;;;;9.23;5.35;;;13.60;99.90;;;;;;5040479;28;20068;-59
2022/07/04 01:09:26;;;;;;;9.40;5.45;;;13.60;99.90;;;;;;5039520;28;20046;-60
2022/07/04 01:11:51;;;;;;;8.23;4.80;;;13.60;99.90;;;;;;5041117;28;20045;-59
2022/07/04 01:14:17;;;;;;;7.85;4.85;;;13.70;99.90;;;;;;5038860;28;20088;-60
2022/07/04 01:16:43;;;;;;;11.55;6.22;;;13.60;99.90;;;;;;5041232;28;20179;-59
2022/07/04 01:19:09;;;;;;;10.93;6.07;;;13.60;99.90;;;;;;5039230;28;20088;-59
2022/07/04 01:21:34;;;;;;;10.88;6.47;;;13.60;99.90;;;;;;5030546;28;20046;-59
2022/07/04 01:24:01;;;;;;;10.57;6.40;;;13.50;99.90;;;;;;5020822;28;20050;-58
2022/07/04 01:26:28;;;;;;;11.38;7.13;;;13.50;99.90;;;;;;5019515;28;20045;-60
2022/07/04 01:28:54;;;;;;;9.15;6.20;;;13.50;99.90;;;;;;5019927;28;20056;-59
2022/07/04 01:31:19;;;;;;;10.13;5.95;;;13.50;99.90;;;;;;5018992;28;20041;-60
2022/07/04 01:33:45;;;;;;;10.15;6.07;;;13.40;99.90;;;;;;5020868;28;20049;-60
2022/07/04 01:36:10;;;;;;;9.05;6.43;;;13.50;99.90;;;;;;5019276;28;20053;-60
2022/07/04 01:38:36;;;;;;;9.90;5.80;;;13.40;99.90;;;;;;5020667;28;20042;-59
2022/07/04 01:41:02;;;;;;;10.25;5.85;;;13.40;99.90;;;;;;5020010;28;20069;-60
2022/07/04 01:43:27;;;;;;;11.10;6.05;;;13.40;99.90;;;;;;5018282;28;20041;-60
2022/07/04 01:45:53;;;;;;;8.82;5.63;;;13.40;99.90;;;;;;5019171;28;20080;-59
2022/07/04 01:48:19;;;;;;;10.77;6.43;;;13.40;99.90;;;;;;5018692;28;20684;-59
2022/07/04 01:50:44;;;;;;;12.52;5.50;;;13.30;99.90;;;;;;5021323;28;20463;-60
2022/07/04 01:53:10;;;;;;;10.52;6.65;;;13.20;99.90;;;;;;5038418;28;20464;-59
2022/07/04 01:55:36;;;;;;;8.57;6.00;;;13.30;99.90;;;;;;5040285;28;20477;-59
2022/07/04 01:58:01;;;;;;;9.60;6.03;;;13.30;99.90;;;;;;5037878;28;20058;-60
2022/07/04 02:03:13;;;;;;;10.23;5.63;;;13.20;99.90;;;;;;5040186;28;20045;-59
2022/07/04 02:05:39;;;;;;;9.82;6.18;;;13.30;99.90;;;;;;5038464;28;20037;-59
2022/07/04 02:08:06;;;;;;;11.18;6.10;;;13.20;99.90;;;;;;5040117;28;20486;-58
2022/07/04 02:10:32;;;;;;;10.35;6.07;;;13.30;99.90;;;;;;5038619;28;20045;-59
2022/07/04 02:13:01;;;;;;;9.85;5.25;;;13.20;99.90;;;;;;5039359;28;20037;-60
2022/07/04 02:15:35;;;;;;;11.15;5.85;;;13.20;99.90;;;;;;5038858;28;20697;-59
2022/07/04 02:18:02;;;;;;;8.88;5.82;;;13.20;99.90;;;;;;5038085;28;20048;-59
2022/07/04 02:20:28;;;;;;;9.70;5.68;;;13.10;99.90;;;;;;5039295;28;20057;-59
2022/07/04 02:22:54;;;;;;;10.75;6.07;;;13.10;99.90;;;;;;5018264;28;20042;-59
2022/07/04 02:25:20;;;;;;;11.85;6.63;;;13.10;99.90;;;;;;5020053;28;20485;-59
2022/07/04 02:27:45;;;;;;;9.68;5.45;;;13.10;99.90;;;;;;5018498;28;20061;-60
2022/07/04 02:30:12;;;;;;;12.63;6.18;;;13.10;99.90;;;;;;5019219;28;20050;-60
2022/07/04 02:32:38;;;;;;;9.18;6.00;;;13.10;99.90;;;;;;5019360;28;20052;-60
2022/07/04 02:35:05;;;;;;;9.32;6.18;;;13.10;99.90;;;;;;5018363;28;20049;-59
2022/07/04 02:37:30;;;;;;;10.63;5.93;;;13.10;99.90;;;;;;5019751;28;20119;-59
2022/07/04 02:39:56;;;;;;;10.90;6.25;;;13.10;99.90;;;;;;5017843;28;20042;-59
2022/07/04 02:42:22;;;;;;;12.35;5.97;;;13.00;99.90;;;;;;5018959;28;20124;-60
2022/07/04 02:44:48;;;;;;;12.68;7.40;;;13.00;99.90;;;;;;5017689;28;20052;-60
2022/07/04 02:47:14;;;;;;;10.65;6.53;;;13.00;99.90;;;;;;5019039;28;20532;-60
2022/07/04 02:49:40;;;;;;;10.43;6.35;;;13.00;99.90;;;;;;5019211;28;20379;-60
2022/07/04 02:52:06;;;;;;;10.95;6.07;;;12.90;99.90;;;;;;5029752;28;20088;-60
2022/07/04 02:54:32;;;;;;;12.18;6.90;;;12.90;99.90;;;;;;5039266;28;20623;-59
2022/07/04 02:56:57;;;;;;;11.02;7.03;;;12.90;99.90;;;;;;5037313;28;20103;-59
2022/07/04 02:59:23;;;;;;;12.43;7.10;;;13.00;99.90;;;;;;5039323;28;20052;-60
2022/07/04 03:01:48;;;;;;;12.02;7.18;;;13.00;99.90;;;;;;5037535;28;20037;-60
2022/07/04 03:04:14;;;;;;;13.25;7.60;;;13.00;99.90;;;;;;5038884;28;20041;-60
2022/07/04 03:06:40;;;;;;;9.95;6.53;;;13.10;99.90;;;;;;5038365;28;20052;-59
2022/07/04 03:09:06;;;;;;;12.48;7.03;;;13.10;99.90;;;;;;5036513;28;20132;-60
2022/07/04 03:11:32;;;;;;;12.68;7.53;;;13.10;99.90;;;;;;5039073;28;20045;-60
2022/07/04 03:13:58;;;;;;;11.50;7.82;;;13.10;99.90;;;;;;5036701;28;20071;-59
2022/07/04 03:16:24;;;;;;;11.55;7.57;;;13.10;99.90;;;;;;5038688;28;20060;-59
2022/07/04 03:18:49;;;;;;;11.05;7.07;;;13.00;99.90;;;;;;5037282;28;20038;-60
2022/07/04 03:21:15;;;;;;;11.85;7.07;;;13.10;99.90;;;;;;5031450;28;20056;-61
2022/07/04 03:23:41;;;;;;;14.32;7.88;;;13.20;99.90;;;;;;5018108;28;20038;-59
2022/07/04 03:26:07;;;;;;;11.23;7.88;;;13.20;99.90;;;;;;5018306;28;20034;-59
2022/07/04 03:28:32;;;;;;;12.68;8.65;;;13.20;99.90;;;;;;5018995;28;20041;-60
2022/07/04 03:30:58;;;;;;;10.45;7.60;;;13.30;99.90;;;;;;5017413;28;20049;-61
2022/07/04 03:33:24;;;;;;;14.02;9.00;;;13.30;99.90;;;;;;5019180;28;20054;-59
2022/07/04 03:35:50;;;;;;;13.07;8.35;;;13.20;99.90;;;;;;5017412;28;20148;-59
2022/07/04 03:38:16;;;;;;;11.75;7.72;;;13.20;99.90;;;;;;5018841;28;20042;-61
2022/07/04 03:40:41;;;;;;;14.77;8.43;;;13.30;99.90;;;;;;5017892;28;20080;-59
2022/07/04 03:43:07;;;;;;;12.27;7.53;;;13.30;99.90;;;;;;5018008;28;20054;-60
2022/07/04 03:45:33;;;;;;;12.48;8.30;;;13.40;99.90;;;;;;5018645;28;20073;-58
2022/07/04 03:48:02;;;;;;;16.02;7.93;;;13.40;99.90;;;;;;5016899;28;20057;-63
2022/07/04 03:50:27;;;;;;;14.18;9.23;;;13.20;99.90;;;;;;5017884;28;20060;-59
2022/07/04 03:52:53;;;;;;;14.77;8.13;;;13.40;99.90;;;;;;5035223;28;20053;-59
2022/07/04 03:55:19;;;;;;;12.65;8.23;;;13.40;99.90;;;;;;5042380;28;20532;-59
2022/07/04 03:57:44;;;;;;;15.40;8.27;;;13.30;99.90;;;;;;5041189;28;20057;-59
2022/07/04 04:00:11;;;;;;;11.10;7.53;;;13.30;99.90;;;;;;5041572;28;20041;-59
2022/07/04 04:02:38;;;;;;;14.77;8.48;;;13.40;99.90;;;;;;5042231;28;20049;-59
2022/07/04 04:07:49;;;;;;;12.43;8.32;;;13.40;99.90;;;;;;5042264;28;20049;-59
2022/07/04 04:10:14;;;;;;;13.95;9.25;;;13.40;99.90;;;;;;5040531;28;20049;-58
2022/07/04 04:12:40;;;;;;;15.15;9.68;;;13.50;99.90;;;;;;5042019;28;20056;-59
2022/07/04 04:15:06;;;;;;;13.50;8.10;;;13.50;99.90;;;;;;5040881;28;20045;-59
2022/07/04 04:17:32;;;;;;;16.10;10.70;;;13.50;99.90;;;;;;5041056;28;20095;-60
2022/07/04 04:19:58;;;;;;;17.90;10.82;;;13.50;99.90;;;;;;5042212;28;20045;-59
2022/07/04 04:22:24;;;;;;;17.20;11.55;;;13.40;99.90;;;;;;5023546;28;20080;-60
2022/07/04 04:24:50;;;;;;;19.98;11.52;;;13.50;99.90;;;;;;5022468;28;20097;-59
2022/07/04 04:27:15;;;;;;;15.45;11.93;;;13.60;99.90;;;;;;5020243;28;20133;-59
2022/07/04 04:29:41;;;;;;;17.27;13.65;;;13.70;99.90;;;;;;5022041;28;20041;-60
2022/07/04 04:32:07;;;;;;;21.50;12.60;;;13.70;99.90;;;;;;5021037;28;20406;-59
2022/07/04 04:34:33;;;;;;;15.45;12.52;;;13.80;99.90;;;;;;5021277;28;20042;-60
2022/07/04 04:36:59;;;;;;;16.15;11.20;;;13.80;99.90;;;;;;5021691;28;20089;-59
2022/07/04 04:39:25;;;;;;;17.88;10.98;;;13.90;99.90;;;;;;5019883;28;20557;-60
2022/07/04 04:41:51;;;;;;;13.65;10.68;;;14.00;99.90;;;;;;5022038;28;20060;-58
2022/07/04 04:44:16;;;;;;;13.20;9.38;;;14.00;99.90;;;;;;5019660;28;20414;-59
2022/07/04 04:46:42;;;;;;;12.45;9.35;;;14.00;99.90;;;;;;5022003;28;20061;-59
2022/07/04 04:49:08;;;;;;;13.30;10.02;;;14.10;99.90;;;;;;5018979;28;20117;-59
2022/07/04 04:51:33;;;;;;;13.70;9.00;;;14.20;99.90;;;;;;5028391;28;20064;-60
2022/07/04 04:53:59;;;;;;;14.18;9.05;;;14.20;99.90;;;;;;5041147;28;20042;-57
2022/07/04 04:56:25;;;;;;;13.20;8.55;;;14.30;99.90;;;;;;5039786;28;20041;-59
2022/07/04 04:58:50;;;;;;;14.95;8.13;;;14.40;99.90;;;;;;5041642;28;20052;-59
2022/07/04 05:01:16;;;;;;;12.77;8.27;;;14.40;99.90;;;;;;5036103;28;20041;-60
2022/07/04 05:03:42;;;;;;;12.02;6.85;;;14.60;99.90;;;;;;5038474;28;20055;-59
2022/07/04 05:06:08;;;;;;;14.77;7.65;;;14.60;99.90;;;;;;5035710;28;20613;-58
2022/07/04 05:08:33;;;;;;;12.10;6.95;;;14.70;99.90;;;;;;5036468;28;20423;-59
2022/07/04 05:10:59;;;;;;;10.48;6.72;;;14.70;99.90;;;;;;5037432;28;20116;-59
2022/07/04 05:13:25;;;;;;;12.23;7.32;;;14.70;99.90;;;;;;5036353;28;20603;-59
2022/07/04 05:15:51;;;;;;;14.07;7.25;;;14.60;99.90;;;;;;5037725;28;20068;-59
2022/07/04 05:18:17;;;;;;;10.68;6.63;;;14.50;99.90;;;;;;5035983;28;20049;-59
2022/07/04 05:20:43;;;;;;;10.85;6.13;;;14.50;99.90;;;;;;5029123;28;20052;-59
2022/07/04 05:23:08;;;;;;;10.57;6.03;;;14.70;99.90;;;;;;5016202;28;20069;-59
2022/07/04 05:25:34;;;;;;;11.48;7.30;;;14.80;99.90;;;;;;5015914;28;20057;-59
2022/07/04 05:28:00;;;;;;;10.63;7.78;;;15.00;99.90;;;;;;5016803;28;20057;-59
2022/07/04 05:30:25;;;;;;;16.60;7.00;;;15.00;99.90;;;;;;5016704;28;20050;-59
2022/07/04 05:32:51;;;;;;;11.63;6.70;;;15.00;99.90;;;;;;5017660;28;20044;-60
2022/07/04 05:35:17;;;;;;;11.50;6.50;;;15.10;99.90;;;;;;5016032;28;20042;-59
2022/07/04 05:37:43;;;;;;;12.68;6.72;;;15.20;99.90;;;;;;5017570;28;20096;-60
2022/07/04 05:40:11;;;;;;;13.43;7.28;;;15.30;99.90;;;;;;5015935;28;20549;-59
2022/07/04 05:42:37;;;;;;;14.27;6.15;;;15.50;99.90;;;;;;5017344;28;20048;-59
2022/07/04 05:45:04;;;;;;;12.23;6.78;;;15.60;99.90;;;;;;5016454;28;20058;-59
2022/07/04 05:47:30;;;;;;;12.45;6.65;;;15.70;99.90;;;;;;5016686;28;20078;-58
2022/07/04 05:50:00;;;;;;;12.43;6.32;;;15.70;99.90;;;;;;5017395;28;20125;-58
2022/07/04 05:52:26;;;;;;;13.07;6.72;;;15.70;99.90;;;;;;5029910;28;20678;-59
2022/07/04 05:54:52;;;;;;;11.48;6.00;;;15.60;99.90;;;;;;5037458;28;20084;-59
2022/07/04 05:57:17;;;;;;;12.23;6.63;;;15.80;99.90;;;;;;5035184;28;20049;-59
2022/07/04 05:59:44;;;;;;;10.77;6.40;;;15.80;99.90;;;;;;5036813;28;20053;-59
2022/07/04 06:02:10;;;;;;;11.45;6.65;;;15.80;99.90;;;;;;5036274;28;20042;-60
2022/07/04 06:04:36;;;;;;;8.63;6.25;;;16.10;99.90;;;;;;5035973;28;20057;-60
2022/07/04 06:07:02;;;;;;;11.85;6.25;;;16.10;99.90;;;;;;5035496;28;20124;-59
2022/07/04 06:09:28;;;;;;;13.07;6.55;;;16.20;99.90;;;;;;5033750;28;20056;-59
2022/07/04 06:11:53;;;;;;;10.85;5.93;;;16.30;99.90;;;;;;5035394;28;21041;-60
2022/07/04 06:14:19;;;;;;;10.70;6.03;;;16.30;99.90;;;;;;5034833;28;20670;-59
2022/07/04 06:16:45;;;;;;;10.18;5.72;;;16.60;99.90;;;;;;5035452;28;20518;-59
2022/07/04 06:19:10;;;;;;;13.10;6.07;;;16.60;99.90;;;;;;5035063;28;20079;-58
2022/07/04 06:21:36;;;;;;;9.90;6.10;;;16.80;99.90;;;;;;5025984;28;20042;-58
2022/07/04 06:24:02;;;;;;;9.05;5.22;;;16.90;99.90;;;;;;5016259;28;20148;-58
2022/07/04 06:26:29;;;;;;;10.60;5.93;;;16.80;99.90;;;;;;5015139;28;20133;-59
2022/07/04 06:28:55;;;;;;;9.93;5.60;;;16.90;99.90;;;;;;5016868;28;20042;-60
2022/07/04 06:31:21;;;;;;;10.15;5.38;;;17.00;99.90;;;;;;5014897;28;20053;-59
2022/07/04 06:36:32;;;;;;;10.20;4.85;;;17.20;99.90;;;;;;5015640;28;20087;-59
2022/07/04 06:38:58;;;;;;;11.23;4.95;;;17.30;99.90;;;;;;5015578;28;20046;-59
2022/07/04 06:41:24;;;;;;;10.95;5.43;;;17.40;99.90;;;;;;5016700;28;20053;-59
2022/07/04 06:43:49;;;;;;;13.52;5.78;;;17.40;99.90;;;;;;5013057;28;20057;-59
2022/07/04 06:46:15;;;;;;;10.63;5.03;;;17.60;99.90;;;;;;5016454;28;20088;-59
2022/07/04 06:48:41;;;;;;;12.20;5.07;;;17.70;99.90;;;;;;5014248;28;20618;-60
2022/07/04 06:51:06;;;;;;;11.50;5.13;;;17.50;99.90;;;;;;5020195;28;20041;-58
2022/07/04 06:53:32;;;;;;;9.35;4.78;;;17.60;99.90;;;;;;5035096;28;20116;-59
2022/07/04 06:55:58;;;;;;;10.07;4.90;;;17.70;99.90;;;;;;5035025;28;20041;-61
2022/07/04 06:58:23;;;;;;;12.23;5.55;;;17.60;99.90;;;;;;5035973;28;20297;-59
2022/07/04 07:00:49;;;;;;;11.75;5.13;;;17.60;99.90;;;;;;5033768;28;20083;-60
2022/07/04 07:03:15;;;;;;;9.75;4.78;;;17.70;99.90;;;;;;5036387;28;20041;-60
2022/07/04 07:05:40;;;;;;;10.93;4.15;;;17.80;99.90;;;;;;5034090;28;20125;-60
2022/07/04 07:08:06;;;;;;;14.05;5.55;;;17.70;99.90;;;;;;5035977;28;20056;-61
2022/07/04 07:10:35;;;;;;;12.63;4.97;;;17.70;99.90;;;;;;5032977;28;20073;-59
2022/07/04 07:13:02;;;;;;;13.02;5.30;;;17.70;99.90;;;;;;5033995;28;20049;-60
2022/07/04 07:15:28;;;;;;;11.70;5.38;;;17.60;99.90;;;;;;5034250;28;20092;-59
2022/07/04 07:17:54;;;;;;;10.55;4.55;;;17.60;99.90;;;;;;5033054;28;20053;-59
2022/07/04 07:20:20;;;;;;;11.48;5.28;;;17.40;99.90;;;;;;5035594;28;20048;-59
2022/07/04 07:22:46;;;;;;;9.65;5.25;;;17.30;99.90;;;;;;5014298;28;20046;-59
2022/07/04 07:25:12;;;;;;;11.98;4.80;;;17.30;99.90;;;;;;5015532;28;20084;-60
2022/07/04 07:27:39;;;;;;;12.80;5.10;;;17.30;99.90;;;;;;5023845;28;20047;-59
2022/07/04 07:30:06;;;;;;;10.80;4.65;;;17.50;99.90;;;;;;5023368;28;20493;-60
2022/07/04 07:32:32;;;;;;;12.25;4.80;;;17.60;99.90;;;;;;5023989;28;20049;-59
2022/07/04 07:34:57;;;;;;;11.10;4.10;;;17.50;99.90;;;;;;5023569;28;20511;-59
2022/07/04 07:37:23;;;;;;;12.25;4.30;;;17.40;99.90;;;;;;5025649;28;20085;-60
2022/07/04 07:39:49;;;;;;;12.07;4.53;;;17.40;99.90;;;;;;5023174;28;20072;-60
2022/07/04 07:42:16;;;;;;;9.20;4.10;;;17.30;99.90;;;;;;5029194;28;20080;-59
2022/07/04 07:44:45;;;;;;;10.65;4.75;;;17.20;99.90;;;;;;5024050;28;20057;-59
2022/07/04 07:47:11;;;;;;;11.05;3.97;;;17.00;99.90;;;;;;5028204;28;20045;-59
2022/07/04 07:49:37;;;;;;;12.10;4.63;;;17.10;99.90;;;;;;5029919;28;20037;-59
2022/07/04 07:52:02;;;;;;;10.35;3.80;;;17.20;99.90;;;;;;5025212;28;20076;-59
2022/07/04 07:54:28;;;;;;;10.20;2.85;;;17.20;99.90;;;;;;5035447;28;20054;-59
2022/07/04 07:56:54;;;;;;;7.18;2.67;;;17.20;99.90;;;;;;5030798;28;20065;-60
2022/07/04 07:59:19;;;;;;;8.13;2.97;;;17.20;99.90;;;;;;5034712;28;20554;-59
2022/07/04 08:01:45;;;;;;;9.07;3.00;;;17.30;99.90;;;;;;5032577;28;20568;-59
2022/07/04 08:06:55;;;;;;;7.97;2.70;;;17.40;99.90;;;;;;5034491;28;20054;-59
2022/07/04 08:09:21;;;;;;;6.47;2.40;;;17.70;99.90;;;;;;5032814;28;20091;-59
2022/07/04 08:11:47;;;;;;;8.13;3.28;;;18.00;99.90;;;;;;5034174;28;20107;-59
2022/07/04 08:14:13;;;;;;;7.30;2.47;;;18.10;99.90;;;;;;5032536;28;20057;-59
2022/07/04 08:16:40;;;;;;;5.25;1.83;;;18.00;99.90;;;;;;5027233;28;20060;-60
2022/07/04 08:19:06;;;;;;;5.10;1.65;;;17.90;99.90;;;;;;5025671;28;20042;-59
2022/07/04 08:21:32;;;;;;;4.82;1.50;;;17.80;99.90;;;;;;5026242;28;20062;-59
2022/07/04 08:23:57;;;;;;;5.38;1.63;;;17.80;99.90;;;;;;5026458;28;20052;-59
2022/07/04 08:26:23;;;;;;;3.83;1.35;;;18.10;99.90;;;;;;5026660;28;20394;-60
2022/07/04 08:28:51;;;;;;;6.07;1.80;;;18.20;99.90;;;;;;5027153;28;20034;-59
2022/07/04 08:31:16;;;;;;;3.60;1.50;;;18.20;99.90;;;;;;5022425;28;20085;-60
2022/07/04 08:33:42;;;;;;;6.60;2.05;;;18.20;99.90;;;;;;5018426;28;20658;-60
2022/07/04 08:36:08;;;;;;;5.60;1.70;;;18.20;99.90;;;;;;5016322;28;20048;-60
2022/07/04 08:38:33;;;;;;;6.03;1.50;;;18.50;99.90;;;;;;5025705;28;20045;-57
2022/07/04 08:41:03;;;;;;;5.30;1.75;;;18.40;99.90;;;;;;5027496;28;20139;-60
2022/07/04 08:43:33;;;;;;;4.20;1.30;;;18.30;99.90;;;;;;5029048;28;20501;-60
2022/07/04 08:46:02;;;;;;;6.63;1.70;;;18.30;99.90;;;;;;5031616;28;20037;-60
2022/07/04 08:48:30;;;;;;;3.75;1.30;;;18.60;99.90;;;;;;5031821;28;20067;-60
2022/07/04 08:51:00;;;;;;;4.03;1.35;;;18.70;99.90;;;;;;5036774;28;20041;-59
2022/07/04 08:53:30;;;;;;;5.28;1.30;;;18.80;99.90;;;;;;5039395;28;20124;-59
2022/07/04 08:58:58;;;;;;;5.63;1.55;;;19.00;99.90;;;;;;4988921;28;20046;-58
2022/07/04 09:01:26;;;;;;;4.90;1.55;;;19.20;99.90;;;;;;5027334;28;20069;-59
2022/07/04 09:03:53;;;;;;;4.90;1.40;;;19.30;99.90;;;;;;5040593;28;20049;-59
2022/07/04 09:06:20;;;;;;;4.75;1.88;;;19.30;99.90;;;;;;5040128;28;20038;-58
2022/07/04 09:08:45;;;;;;;3.47;1.20;;;19.30;99.90;;;;;;5040166;28;20068;-59
2022/07/04 09:11:12;;;;;;;5.47;1.55;;;19.40;99.90;;;;;;5040452;28;20505;-59
2022/07/04 09:13:38;;;;;;;4.57;1.38;;;19.10;99.90;;;;;;5038837;28;20048;-59
2022/07/04 09:16:04;;;;;;;4.53;1.30;;;18.90;99.90;;;;;;5040945;28;20057;-59
2022/07/04 09:18:30;;;;;;;3.25;1.20;;;19.10;99.90;;;;;;5039174;28;20129;-59
2022/07/04 09:21:01;;;;;;;4.00;1.38;;;19.50;99.90;;;;;;5035837;28;20038;-59
2022/07/04 09:23:30;;;;;;;4.90;1.40;;;19.50;99.90;;;;;;5019792;28;20108;-59
2022/07/04 09:26:14;;;;;;;3.97;1.05;;;19.70;99.90;;;;;;5020139;28;20084;-60
2022/07/04 09:28:57;;;;;;;4.78;1.55;;;19.50;99.90;;;;;;5020744;28;20050;-59
2022/07/04 09:31:28;;;;;;;7.15;1.35;;;19.50;99.90;;;;;;5019252;28;20058;-60
2022/07/04 09:33:59;;;;;;;5.18;1.30;;;19.20;99.90;;;;;;5020491;28;20050;-59
2022/07/04 09:36:28;;;;;;;6.18;1.45;;;19.30;99.90;;;;;;5019699;28;20050;-59
2022/07/04 09:39:21;;;;;;;4.13;1.42;;;19.70;99.90;;;;;;5019248;28;20096;-59
2022/07/04 09:42:01;;;;;;;4.10;1.25;;;19.20;99.90;;;;;;5020818;28;20430;-59
2022/07/04 09:44:48;;;;;;;4.82;1.20;;;19.00;99.90;;;;;;5018478;28;20554;-59
2022/07/04 09:47:29;;;;;;;4.07;1.45;;;18.90;99.90;;;;;;5019387;28;20052;-59
2022/07/04 09:50:04;;;;;;;5.93;1.35;;;18.70;99.90;;;;;;5020474;28;20325;-59
2022/07/04 09:52:30;;;;;;;3.53;1.20;;;18.60;99.90;;;;;;5032909;28;20528;-59
2022/07/04 09:55:05;;;;;;;4.05;1.58;;;19.00;99.90;;;;;;5033958;28;20123;-59
2022/07/04 09:57:31;;;;;;;4.97;1.45;;;19.00;99.90;;;;;;5027478;28;20113;-59
2022/07/04 10:00:16;;;;;;;6.43;1.50;;;19.00;99.90;;;;;;5029736;28;20039;-59
2022/07/04 10:02:42;;;;;;;4.88;1.50;;;18.90;99.90;;;;;;5029061;28;20037;-59
2022/07/04 10:05:08;;;;;;;5.95;1.95;;;18.70;99.90;;;;;;5025909;28;20038;-59
2022/07/04 10:07:44;;;;;;;5.60;1.95;;;18.70;99.90;;;;;;5030618;28;20122;-59
2022/07/04 10:10:29;;;;;;;5.15;1.60;;;18.50;99.90;;;;;;5033612;28;20047;-59
2022/07/04 10:13:01;;;;;;;5.85;1.73;;;18.90;99.90;;;;;;5037233;28;20041;-59
2022/07/04 10:15:27;;;;;;;6.32;1.98;;;19.20;99.90;;;;;;5035534;28;20445;-58
2022/07/04 10:17:53;;;;;;;4.13;1.60;;;19.20;99.90;;;;;;5037344;28;20101;-59
2022/07/04 10:20:19;;;;;;;5.07;1.63;;;19.40;99.90;;;;;;5039078;28;20022;-59
2022/07/04 10:22:45;;;;;;;4.38;1.42;;;19.20;99.90;;;;;;5033452;28;20038;-59
2022/07/04 10:25:11;;;;;;;4.72;1.65;;;19.00;99.90;;;;;;5026656;28;20060;-59
2022/07/04 10:27:38;;;;;;;6.20;1.73;;;19.20;99.90;;;;;;5031406;28;20091;-59
2022/07/04 10:30:07;;;;;;;7.07;2.40;;;19.20;99.90;;;;;;5037812;28;20041;-60
2022/07/04 10:32:34;;;;;;;4.53;1.70;;;19.10;99.90;;;;;;5036409;28;20053;-59
2022/07/04 10:35:00;;;;;;;6.18;1.60;;;19.20;99.90;;;;;;5025031;28;20564;-60
2022/07/04 10:38:02;;;;;;;4.53;1.55;;;19.00;99.90;;;;;;5029528;28;20041;-60
2022/07/04 10:40:47;;;;;;;4.25;1.75;;;19.40;99.90;;;;;;5026701;28;20499;-59
2022/07/04 10:43:37;;;;;;;8.30;1.70;;;19.40;99.90;;;;;;5027323;28;20038;-60
2022/07/04 10:46:12;;;;;;;6.32;2.28;;;19.70;99.90;;;;;;5029744;28;20064;-60
2022/07/04 10:48:48;;;;;;;4.28;1.48;;;20.00;99.90;;;;;;5027559;28;20045;-59
2022/07/04 10:51:15;;;;;;;4.45;1.40;;;20.10;99.90;;;;;;5027971;28;20053;-60
2022/07/04 10:54:01;;;;;;;5.80;1.25;;;20.00;99.90;;;;;;5028927;28;20052;-60
2022/07/04 10:56:26;;;;;;;3.70;1.30;;;20.00;99.90;;;;;;5027409;28;20057;-59
2022/07/04 10:58:54;;;;;;;5.50;1.20;;;20.20;99.90;;;;;;5027902;28;20113;-59
2022/07/04 11:01:20;;;;;;;4.47;1.38;;;20.50;99.90;;;;;;5026378;28;20046;-60
2022/07/04 11:03:50;;;;;;;4.63;1.25;;;20.50;99.90;;;;;;5027947;28;20068;-60
2022/07/04 11:06:43;;;;;;;3.10;1.20;;;20.40;99.90;;;;;;5036837;28;20049;-59
2022/07/04 11:09:20;;;;;;;5.20;1.30;;;20.60;99.90;;;;;;5034390;28;20124;-59
2022/07/04 11:11:51;;;;;;;4.15;1.10;;;20.60;99.90;;;;;;5035911;28;20045;-60
2022/07/04 11:14:40;;;;;;;4.20;1.20;;;21.00;99.90;;;;;;5035825;28;20100;-60
2022/07/04 11:17:14;;;;;;;5.55;1.10;;;21.10;99.90;;;;;;5022272;28;20132;-60
2022/07/04 11:19:41;;;;;;;4.75;1.25;;;20.40;99.90;;;;;;5018665;28;20078;-59
2022/07/04 11:22:10;;;;;;;4.43;1.30;;;20.40;99.90;;;;;;5030449;28;20052;-60
2022/07/04 11:24:36;;;;;;;4.53;1.13;;;20.70;99.90;;;;;;5038440;28;20045;-59
2022/07/04 11:27:02;;;;;;;4.55;1.20;;;20.60;99.90;;;;;;5036640;28;20060;-60
2022/07/04 11:29:29;;;;;;;4.75;1.27;;;21.10;99.90;;;;;;5038572;28;20048;-60
2022/07/04 11:31:56;;;;;;;4.45;1.58;;;21.00;99.90;;;;;;5037426;28;20271;-60
2022/07/04 11:34:22;;;;;;;4.97;1.10;;;20.90;99.90;;;;;;5037797;28;20053;-60
2022/07/04 11:36:50;;;;;;;4.68;1.30;;;20.90;99.90;;;;;;5038241;28;20461;-60
2022/07/04 11:39:19;;;;;;;4.53;1.23;;;20.70;99.90;;;;;;5036497;28;20037;-60
2022/07/04 11:47:32;;;;;;;3.65;1.08;;;21.20;99.90;;;;;;5031723;28;20103;-60
2022/07/04 11:49:59;;;;;;;5.68;1.10;;;20.60;99.90;;;;;;5035566;28;20064;-59
2022/07/04 11:52:27;;;;;;;4.53;1.20;;;21.10;99.90;;;;;;5034177;28;20029;-60
2022/07/04 11:54:54;;;;;;;4.10;1.00;;;21.20;99.90;;;;;;5037267;28;20517;-60
2022/07/04 11:57:22;;;;;;;5.72;1.40;;;21.20;99.90;;;;;;5019673;28;20038;-60
2022/07/04 11:59:57;;;;;;;4.47;1.20;;;21.00;99.90;;;;;;5021592;28;20536;-59
2022/07/04 12:02:25;;;;;;;4.38;0.98;;;20.70;99.90;;;;;;5025476;28;20052;-59
2022/07/04 12:04:51;;;;;;;3.03;1.00;;;20.20;99.90;;;;;;5025123;28;20041;-60
2022/07/04 12:07:18;;;;;;;4.50;1.30;;;20.20;99.90;;;;;;5029346;28;20045;-59
2022/07/04 12:09:46;;;;;;;3.08;0.98;;;20.50;99.90;;;;;;5026083;28;20100;-60
2022/07/04 12:12:17;;;;;;;3.67;1.17;;;20.70;99.90;;;;;;5027405;28;20081;-60
2022/07/04 12:15:06;;;;;;;3.88;1.00;;;20.80;99.90;;;;;;5026725;28;20034;-60
2022/07/04 12:17:33;;;;;;;4.13;1.20;;;21.10;99.90;;;;;;5030229;28;20089;-60
2022/07/04 12:20:13;;;;;;;7.85;1.55;;;20.60;99.90;;;;;;5030691;28;20831;-60
2022/07/04 12:22:42;;;;;;;3.65;1.20;;;20.60;99.90;;;;;;5029425;28;20037;-60
2022/07/04 12:25:28;;;;;;;4.40;1.10;;;20.60;99.90;;;;;;5034194;28;20052;-60
2022/07/04 12:28:04;;;;;;;5.30;1.40;;;20.30;99.90;;;;;;5034193;28;20049;-60
2022/07/04 12:30:33;;;;;;;4.55;1.30;;;19.80;99.90;;;;;;5025807;28;20050;-60
2022/07/04 12:33:01;;;;;;;6.15;1.23;;;20.10;99.90;;;;;;5030881;28;20042;-60
2022/07/04 12:35:51;;;;;;;3.65;1.27;;;19.70;99.90;;;;;;5018623;28;20113;-60
2022/07/04 12:38:28;;;;;;;5.22;1.13;;;19.80;99.90;;;;;;5021536;28;20050;-59
2022/07/04 12:40:55;;;;;;;4.10;1.30;;;20.10;99.90;;;;;;5021276;28;20414;-59
2022/07/04 12:43:24;;;;;;;4.80;1.10;;;20.00;99.90;;;;;;5019260;28;20293;-60
2022/07/04 12:45:54;;;;;;;6.13;1.27;;;20.50;99.90;;;;;;5021304;28;20066;-58
2022/07/04 12:48:29;;;;;;;4.38;1.45;;;20.70;99.90;;;;;;5018671;28;20038;-60
2022/07/04 12:51:09;;;;;;;5.32;0.90;;;20.60;99.90;;;;;;5023267;28;20046;-60
2022/07/04 12:53:39;;;;;;;3.83;0.90;;;20.60;99.90;;;;;;5040113;28;20026;-59
2022/07/04 12:56:06;;;;;;;2.25;0.77;;;20.70;99.90;;;;;;5038944;28;20141;-61
2022/07/04 12:58:32;;;;;;;3.63;0.90;;;20.90;99.90;;;;;;5041078;28;20056;-59
2022/07/04 13:00:57;;;;;;;2.88;0.95;;;20.70;99.90;;;;;;5037590;28;20061;-60
2022/07/04 13:03:23;;;;;;;2.63;0.75;;;20.60;99.90;;;;;;5041006;28;20042;-60